Aeroporto :
LOGIN :

Iscrizione | Disclaimer

   EN    FR    IT 

 










Sommario :    VFR   VFR Marginale   IFR   IFR Intensivo   IFR Molto Intensivo
Visibilità : 
Base nubi : 
>= 8 km
>= 3000ft
5 / 8 km
1000 / 3000 ft
1500m / 5 km
500 / 1000 ft
800 / 1500m
200 / 500 ft
< 800m
< 200 ft
Simboli :   Temporali  Nebbia  Neve Forte  Precipitazioni Forti  Vento > 20 kt
SIGMETs :   Varie  Temporali  Ghiacco  Turbolenza  Onda orograficha  Ceneri Vulcaniche






- Altitudine del aeroporto : 876 ft
- Codice IATA : MBX


LJMB - Maribor

ULTIMO METAR :
  • 120200Z AUTO 36001KT 9999 NCD M04/M05 Q1009

METARs OBSOLETI :
  • 120130Z AUTO 23001KT 9999 FEW031/// M04/M05 Q1010
  • 120100Z AUTO 31001KT 9999 FEW031/// M04/M05 Q1010
  • 120030Z AUTO 25001KT 9999 BKN031/// M03/M05 Q1010
  • 120000Z AUTO 19002KT 9999 OVC032/// M03/M05 Q1010
  • 112330Z AUTO VRB02KT 9999 BKN035/// M04/M05 Q1011

TAF TAF LJMB
Valido dal 12 a 00 ore il 13 a 00 ore UTC


112300Z 1200/1224 36003KT 9999 BKN036
PROB30
TEMPO 1213/1221 7000 -SN
BECMG 1221/1224 18005KT SCT040 BKN060



MetMap, La meteo Aeronautica in un colpo d'occhio ! - Copyright ORBIFLY Dicembre 2007 - Disclaimer

ORBIFLY MET'MAP TEAM :

Programmazione e sviluppo : Alexandra Zaïnal
Concezione : Baudouin d'Aumeries
Aiuto per la programmazione : Marc-Olivier Méhu
Supporto tecnico e logistico : Manuel Goepfert
Aiuto per la traduzione : Arnaldo La Scala

Contatto : metmap@orbifly.com




FONTI E CREDITI :

   NOAA